Airfield :







YOU CAN JOIN US ON...

 
LOGIN :

Register | Disclaimer

   EN    FR    IT 

 









Legend :    VFR   Marginal VFR   IFR   Intensive IFR   Very Intensive IFR
Visi :
Ceiling :
>= 8 km
>= 3000ft
5 to 8 km
1000 to 3000 ft
1500m to 5 km
500 to 1000 ft
800 to 1500m
200 to 500 ft
< 800m
< 200 ft
Symbols :   Thunderstorms  Fog  Heavy snow  Heavy precipitations  Wind > 20 kt






- Airport Elevation : 192 ft
- IATA code : BGR


KBGR - Bangor International

CURRENT METAR :
  • 180053Z 00000KT 10SM FEW100 M07/M10 A3034 RMK AO2 SLP280 T10721100

EXPIRED METARs :
  • 172353Z 00000KT 10SM FEW070 FEW200 M07/M09 A3036 RMK AO2 SLP285 4/001 T10671094 10006 21067 56012
  • 172253Z 00000KT 10SM FEW070 FEW120 SCT200 M06/M09 A3036 RMK AO2 SLP287 T10561089

TAF KBGR
Valid from the 18 at 00:00 until the 19 at 00:00 UTC


172320Z 1800/1824 03003KT P6SM FEW100
FM181300 02006KT P6SM VCSH OVC090
FM181500 02008KT P6SM VCSH OVC017
FM181600 02009KT 3SM -FZRA OVC016
FM182100 02012G20KT 2SM RA OVC014



MET'MAP, your aeronautical weather chart ! - Copyright ORBIFLY December 2007 - Disclaimer

ORBIFLY MET'MAP TEAM :

Programming & Development : Alexandra Zaïnal
Concept & Development : Baudouin d'Aumeries
Co-Development & Prog : Marc-Olivier Méhu
Technical & hardware support : Manuel Goepfert

Contact : metmap@orbifly.com




SOURCES & CREDITS :

   NOAA